sensor_id;sensor_type;location;lat;lon;timestamp;pressure;altitude;pressure_sealevel;temperature;humidity
47524;BME280;33253;42.144;25.884;2022-08-04T00:00:14;100419.94;;;22.33;66.15
47524;BME280;33253;42.144;25.884;2022-08-04T00:10:38;100419.41;;;22.05;66.94
47524;BME280;33253;42.144;25.884;2022-08-04T00:13:05;100392.38;;;21.92;67.14
47524;BME280;33253;42.144;25.884;2022-08-04T00:15:32;100417.69;;;22.02;67.18
47524;BME280;33253;42.144;25.884;2022-08-04T00:18:02;100372.41;;;21.75;67.17
47524;BME280;33253;42.144;25.884;2022-08-04T00:20:31;100349.94;;;21.43;68.27
47524;BME280;33253;42.144;25.884;2022-08-04T00:22:58;100418.78;;;21.78;68.61
47524;BME280;33253;42.144;25.884;2022-08-04T00:25:24;100418.69;;;21.89;68.01
47524;BME280;33253;42.144;25.884;2022-08-04T00:27:50;100370.69;;;21.73;67.84
47524;BME280;33253;42.144;25.884;2022-08-04T00:30:15;100388.75;;;22.02;67.00
47524;BME280;33253;42.144;25.884;2022-08-04T00:32:41;100409.47;;;22.28;66.00
47524;BME280;33253;42.144;25.884;2022-08-04T00:35:12;100414.56;;;22.44;65.68
47524;BME280;33253;42.144;25.884;2022-08-04T00:37:38;100419.91;;;22.38;67.00
47524;BME280;33253;42.144;25.884;2022-08-04T00:40:23;100420.94;;;22.24;67.38
47524;BME280;33253;42.144;25.884;2022-08-04T00:43:09;100424.63;;;22.09;67.78
47524;BME280;33253;42.144;25.884;2022-08-04T00:54:00;100431.72;;;22.01;68.98
47524;BME280;33253;42.144;25.884;2022-08-04T01:01:40;100364.44;;;21.85;68.08
47524;BME280;33253;42.144;25.884;2022-08-04T01:07:12;100430.94;;;21.90;69.77
47524;BME280;33253;42.144;25.884;2022-08-04T01:09:50;100418.66;;;21.92;69.60
47524;BME280;33253;42.144;25.884;2022-08-04T01:12:46;100429.97;;;21.98;69.18
47524;BME280;33253;42.144;25.884;2022-08-04T01:15:35;100435.31;;;21.91;69.44
47524;BME280;33253;42.144;25.884;2022-08-04T01:18:07;100433.59;;;21.90;69.69
47524;BME280;33253;42.144;25.884;2022-08-04T01:29:08;100430.38;;;21.57;70.96
47524;BME280;33253;42.144;25.884;2022-08-04T01:31:38;100439.09;;;21.62;71.41
47524;BME280;33253;42.144;25.884;2022-08-04T01:34:10;100439.03;;;21.68;71.26
47524;BME280;33253;42.144;25.884;2022-08-04T01:36:53;100433.03;;;21.58;71.53
47524;BME280;33253;42.144;25.884;2022-08-04T01:39:21;100440.91;;;21.50;72.06
47524;BME280;33253;42.144;25.884;2022-08-04T01:42:05;100379.78;;;21.36;71.96
47524;BME280;33253;42.144;25.884;2022-08-04T01:44:32;100440.03;;;21.56;73.98
47524;BME280;33253;42.144;25.884;2022-08-04T01:47:00;100450.63;;;21.41;75.33
47524;BME280;33253;42.144;25.884;2022-08-04T01:49:30;100443.53;;;21.54;74.85
47524;BME280;33253;42.144;25.884;2022-08-04T01:51:56;100441.69;;;21.67;74.74
47524;BME280;33253;42.144;25.884;2022-08-04T01:54:24;100433.88;;;21.56;75.97
47524;BME280;33253;42.144;25.884;2022-08-04T01:56:50;100430.38;;;21.57;76.50
47524;BME280;33253;42.144;25.884;2022-08-04T01:59:19;100422.47;;;21.61;75.86
47524;BME280;33253;42.144;25.884;2022-08-04T02:01:45;100427.69;;;21.66;75.89
47524;BME280;33253;42.144;25.884;2022-08-04T02:04:13;100384.13;;;21.36;75.85
47524;BME280;33253;42.144;25.884;2022-08-04T02:09:21;100434.75;;;21.61;77.31
47524;BME280;33253;42.144;25.884;2022-08-04T02:12:09;100376.50;;;21.08;78.52
47524;BME280;33253;42.144;25.884;2022-08-04T02:14:40;100428.75;;;21.40;77.42
47524;BME280;33253;42.144;25.884;2022-08-04T02:17:17;100413.06;;;21.32;78.41
47524;BME280;33253;42.144;25.884;2022-08-04T02:25:27;100394.66;;;21.34;76.13
47524;BME280;33253;42.144;25.884;2022-08-04T02:28:14;100431.28;;;21.53;75.52
47524;BME280;33253;42.144;25.884;2022-08-04T02:33:38;100388.75;;;21.09;74.97
47524;BME280;33253;42.144;25.884;2022-08-04T02:36:09;100421.84;;;21.28;74.46
47524;BME280;33253;42.144;25.884;2022-08-04T02:38:54;100435.00;;;21.24;75.36
47524;BME280;33253;42.144;25.884;2022-08-04T02:41:22;100433.22;;;21.29;74.83
47524;BME280;33253;42.144;25.884;2022-08-04T02:43:49;100431.50;;;21.23;74.97
47524;BME280;33253;42.144;25.884;2022-08-04T02:46:17;100435.16;;;21.04;75.58
47524;BME280;33253;42.144;25.884;2022-08-04T02:48:45;100442.22;;;20.91;75.65
47524;BME280;33253;42.144;25.884;2022-08-04T02:51:14;100443.97;;;20.95;75.32
47524;BME280;33253;42.144;25.884;2022-08-04T02:53:41;100426.50;;;20.84;76.16
47524;BME280;33253;42.144;25.884;2022-08-04T02:56:08;100447.53;;;20.81;76.51
47524;BME280;33253;42.144;25.884;2022-08-04T02:58:34;100440.56;;;20.74;76.73
47524;BME280;33253;42.144;25.884;2022-08-04T03:01:02;100445.81;;;20.76;76.43
47524;BME280;33253;42.144;25.884;2022-08-04T03:04:01;100444.13;;;20.62;77.05
47524;BME280;33253;42.144;25.884;2022-08-04T03:23:28;100457.44;;;19.91;80.16
47524;BME280;33253;42.144;25.884;2022-08-04T03:34:36;100461.81;;;19.95;81.25
47524;BME280;33253;42.144;25.884;2022-08-04T03:40:39;100458.34;;;19.90;82.79
47524;BME280;33253;42.144;25.884;2022-08-04T03:54:57;100462.69;;;19.74;85.70
47524;BME280;33253;42.144;25.884;2022-08-04T04:08:34;100408.56;;;19.67;82.61
47524;BME280;33253;42.144;25.884;2022-08-04T04:25:41;100463.56;;;19.93;85.02
47524;BME280;33253;42.144;25.884;2022-08-04T04:42:29;100414.53;;;20.28;81.39
47524;BME280;33253;42.144;25.884;2022-08-04T04:45:21;100470.28;;;20.75;80.89
47524;BME280;33253;42.144;25.884;2022-08-04T04:48:16;100472.84;;;20.95;79.36
47524;BME280;33253;42.144;25.884;2022-08-04T04:53:32;100475.25;;;21.26;77.51
47524;BME280;33253;42.144;25.884;2022-08-04T04:58:51;100401.84;;;21.10;75.57
47524;BME280;33253;42.144;25.884;2022-08-04T05:14:20;100413.72;;;21.61;78.91
47524;BME280;33253;42.144;25.884;2022-08-04T05:16:56;100411.97;;;21.55;83.06
47524;BME280;33253;42.144;25.884;2022-08-04T05:19:27;100472.06;;;21.94;82.95
47524;BME280;33253;42.144;25.884;2022-08-04T05:22:01;100481.53;;;22.13;82.11
47524;BME280;33253;42.144;25.884;2022-08-04T05:24:31;100477.09;;;22.19;81.36
47524;BME280;33253;42.144;25.884;2022-08-04T05:27:01;100469.94;;;22.30;81.31
47524;BME280;33253;42.144;25.884;2022-08-04T05:29:34;100473.34;;;22.41;81.45
47524;BME280;33253;42.144;25.884;2022-08-04T05:32:03;100425.25;;;22.28;80.03
47524;BME280;33253;42.144;25.884;2022-08-04T05:34:42;100480.03;;;22.69;79.16
47524;BME280;33253;42.144;25.884;2022-08-04T05:37:16;100473.81;;;22.73;78.15
47524;BME280;33253;42.144;25.884;2022-08-04T05:39:55;100482.53;;;22.80;76.37
47524;BME280;33253;42.144;25.884;2022-08-04T05:42:21;100484.25;;;22.82;76.36
47524;BME280;33253;42.144;25.884;2022-08-04T05:44:49;100425.91;;;22.48;74.27
47524;BME280;33253;42.144;25.884;2022-08-04T05:47:16;100474.66;;;22.76;72.99
47524;BME280;33253;42.144;25.884;2022-08-04T05:49:42;100467.84;;;22.63;72.54
47524;BME280;33253;42.144;25.884;2022-08-04T05:52:11;100484.13;;;22.90;73.13
47524;BME280;33253;42.144;25.884;2022-08-04T05:54:38;100484.91;;;22.97;72.08
47524;BME280;33253;42.144;25.884;2022-08-04T05:57:05;100483.94;;;23.05;71.39
47524;BME280;33253;42.144;25.884;2022-08-04T05:59:31;100486.50;;;23.08;72.74
47524;BME280;33253;42.144;25.884;2022-08-04T06:01:59;100478.47;;;23.21;72.11
47524;BME280;33253;42.144;25.884;2022-08-04T06:04:37;100488.06;;;23.23;72.84
47524;BME280;33253;42.144;25.884;2022-08-04T06:07:04;100480.06;;;23.30;72.27
47524;BME280;33253;42.144;25.884;2022-08-04T06:09:30;100477.47;;;23.28;71.32
47524;BME280;33253;42.144;25.884;2022-08-04T06:11:59;100471.97;;;23.42;70.66
47524;BME280;33253;42.144;25.884;2022-08-04T06:14:25;100471.81;;;23.53;70.75
47524;BME280;33253;42.144;25.884;2022-08-04T06:16:53;100468.31;;;23.51;71.11
47524;BME280;33253;42.144;25.884;2022-08-04T06:19:20;100429.06;;;23.35;70.94
47524;BME280;33253;42.144;25.884;2022-08-04T06:21:50;100465.53;;;23.62;70.56
47524;BME280;33253;42.144;25.884;2022-08-04T06:24:23;100454.00;;;23.66;69.35
47524;BME280;33253;42.144;25.884;2022-08-04T06:26:50;100462.66;;;23.74;69.90
47524;BME280;33253;42.144;25.884;2022-08-04T06:29:18;100433.00;;;23.61;69.58
47524;BME280;33253;42.144;25.884;2022-08-04T06:32:06;100463.19;;;23.95;67.13
47524;BME280;33253;42.144;25.884;2022-08-04T06:34:56;100418.53;;;23.84;65.70
47524;BME280;33253;42.144;25.884;2022-08-04T06:37:24;100461.56;;;24.34;64.53
47524;BME280;33253;42.144;25.884;2022-08-04T06:39:51;100455.16;;;24.45;65.25
47524;BME280;33253;42.144;25.884;2022-08-04T06:42:19;100462.97;;;24.51;63.03
47524;BME280;33253;42.144;25.884;2022-08-04T06:44:48;100462.91;;;24.54;62.29
47524;BME280;33253;42.144;25.884;2022-08-04T06:47:16;100463.72;;;24.56;62.01
47524;BME280;33253;42.144;25.884;2022-08-04T06:49:44;100473.38;;;24.59;63.13
47524;BME280;33253;42.144;25.884;2022-08-04T06:52:12;100464.63;;;24.57;63.32
47524;BME280;33253;42.144;25.884;2022-08-04T06:54:43;100461.75;;;24.69;61.58
47524;BME280;33253;42.144;25.884;2022-08-04T06:57:28;100470.25;;;24.82;60.61
47524;BME280;33253;42.144;25.884;2022-08-04T07:00:20;100465.56;;;24.95;61.51
47524;BME280;33253;42.144;25.884;2022-08-04T07:02:50;100463.56;;;25.06;60.63
47524;BME280;33253;42.144;25.884;2022-08-04T07:05:18;100458.75;;;25.22;59.13
47524;BME280;33253;42.144;25.884;2022-08-04T07:07:44;100451.31;;;25.41;60.79
47524;BME280;33253;42.144;25.884;2022-08-04T07:10:11;100457.19;;;25.52;60.59
47524;BME280;33253;42.144;25.884;2022-08-04T07:12:39;100444.81;;;25.53;58.62
47524;BME280;33253;42.144;25.884;2022-08-04T07:15:06;100440.53;;;25.49;58.85
47524;BME280;33253;42.144;25.884;2022-08-04T07:17:34;100436.34;;;25.75;56.64
47524;BME280;33253;42.144;25.884;2022-08-04T07:20:00;100441.16;;;25.93;59.02
47524;BME280;33253;42.144;25.884;2022-08-04T07:22:26;100442.94;;;25.91;57.07
47524;BME280;33253;42.144;25.884;2022-08-04T07:24:57;100447.06;;;26.02;57.60
47524;BME280;33253;42.144;25.884;2022-08-04T07:27:24;100439.06;;;26.06;55.43
47524;BME280;33253;42.144;25.884;2022-08-04T07:29:50;100438.19;;;26.04;57.33
47524;BME280;33253;42.144;25.884;2022-08-04T07:32:19;100432.94;;;26.03;56.71
47524;BME280;33253;42.144;25.884;2022-08-04T07:34:48;100424.06;;;26.05;58.35
47524;BME280;33253;42.144;25.884;2022-08-04T07:37:14;100428.28;;;26.12;55.41
47524;BME280;33253;42.144;25.884;2022-08-04T07:39:39;100429.41;;;26.35;54.04
47524;BME280;33253;42.144;25.884;2022-08-04T07:42:05;100425.19;;;26.59;53.30
47524;BME280;33253;42.144;25.884;2022-08-04T07:44:32;100426.50;;;26.74;52.80
47524;BME280;33253;42.144;25.884;2022-08-04T07:47:00;100425.19;;;26.88;53.61
47524;BME280;33253;42.144;25.884;2022-08-04T07:49:26;100412.78;;;26.90;54.55
47524;BME280;33253;42.144;25.884;2022-08-04T07:51:54;100421.31;;;27.00;52.53
47524;BME280;33253;42.144;25.884;2022-08-04T07:54:19;100378.78;;;26.76;52.12
47524;BME280;33253;42.144;25.884;2022-08-04T07:56:47;100417.28;;;27.15;52.58
47524;BME280;33253;42.144;25.884;2022-08-04T07:59:17;100420.88;;;27.40;50.47
47524;BME280;33253;42.144;25.884;2022-08-04T08:01:43;100427.25;;;27.62;50.08
47524;BME280;33253;42.144;25.884;2022-08-04T08:04:10;100430.25;;;27.76;49.30
47524;BME280;33253;42.144;25.884;2022-08-04T08:06:37;100418.22;;;27.91;49.39
47524;BME280;33253;42.144;25.884;2022-08-04T08:09:11;100422.47;;;27.97;48.35
47524;BME280;33253;42.144;25.884;2022-08-04T08:11:37;100423.75;;;28.10;51.58
47524;BME280;33253;42.144;25.884;2022-08-04T08:14:03;100416.78;;;28.07;52.86
47524;BME280;33253;42.144;25.884;2022-08-04T08:16:28;100387.84;;;28.00;49.96
47524;BME280;33253;42.144;25.884;2022-08-04T08:18:57;100407.59;;;28.16;49.61
47524;BME280;33253;42.144;25.884;2022-08-04T08:21:23;100414.66;;;28.17;51.34
47524;BME280;33253;42.144;25.884;2022-08-04T08:23:48;100414.31;;;28.27;49.83
47524;BME280;33253;42.144;25.884;2022-08-04T08:26:14;100417.28;;;28.41;51.31
47524;BME280;33253;42.144;25.884;2022-08-04T08:28:40;100418.25;;;28.40;49.22
47524;BME280;33253;42.144;25.884;2022-08-04T08:31:06;100419.69;;;28.49;48.78
47524;BME280;33253;42.144;25.884;2022-08-04T08:33:31;100414.41;;;28.47;48.11
47524;BME280;33253;42.144;25.884;2022-08-04T08:36:11;100419.25;;;28.36;48.85
47524;BME280;33253;42.144;25.884;2022-08-04T08:41:19;100326.97;;;27.95;47.73
47524;BME280;33253;42.144;25.884;2022-08-04T08:54:55;100398.16;;;29.01;44.55
47524;BME280;33253;42.144;25.884;2022-08-04T08:57:36;100398.53;;;29.14;42.35
47524;BME280;33253;42.144;25.884;2022-08-04T09:03:11;100393.06;;;29.39;46.73
47524;BME280;33253;42.144;25.884;2022-08-04T09:11:19;100378.59;;;29.86;45.75
47524;BME280;33253;42.144;25.884;2022-08-04T09:13:56;100380.00;;;29.95;41.86
47524;BME280;33253;42.144;25.884;2022-08-04T09:16:40;100331.91;;;29.79;42.47
47524;BME280;33253;42.144;25.884;2022-08-04T09:25:10;100371.25;;;30.31;39.70
47524;BME280;33253;42.144;25.884;2022-08-04T09:27:53;100369.53;;;30.49;41.25
47524;BME280;33253;42.144;25.884;2022-08-04T09:30:22;100375.16;;;30.62;42.28
47524;BME280;33253;42.144;25.884;2022-08-04T09:39:21;100361.56;;;30.86;41.81
47524;BME280;33253;42.144;25.884;2022-08-04T09:48:19;100355.66;;;30.96;37.43
47524;BME280;33253;42.144;25.884;2022-08-04T09:50:55;100353.31;;;31.09;39.13
47524;BME280;33253;42.144;25.884;2022-08-04T09:56:12;100323.47;;;31.36;35.79
47524;BME280;33253;42.144;25.884;2022-08-04T09:59:00;100346.59;;;31.71;33.98
47524;BME280;33253;42.144;25.884;2022-08-04T10:01:32;100340.41;;;31.86;33.02
47524;BME280;33253;42.144;25.884;2022-08-04T10:04:00;100343.53;;;31.94;34.80
47524;BME280;33253;42.144;25.884;2022-08-04T10:15:09;100344.25;;;32.46;34.33
47524;BME280;33253;42.144;25.884;2022-08-04T10:18:22;100332.47;;;32.50;34.69
47524;BME280;33253;42.144;25.884;2022-08-04T10:26:35;100331.59;;;33.27;32.45
47524;BME280;33253;42.144;25.884;2022-08-04T10:29:05;100321.53;;;33.46;30.67
47524;BME280;33253;42.144;25.884;2022-08-04T10:31:37;100260.63;;;33.35;32.87
47524;BME280;33253;42.144;25.884;2022-08-04T10:34:12;100314.66;;;33.85;31.50
47524;BME280;33253;42.144;25.884;2022-08-04T10:39:50;100281.06;;;34.09;28.27
47524;BME280;33253;42.144;25.884;2022-08-04T10:42:40;100299.03;;;34.07;29.39
47524;BME280;33253;42.144;25.884;2022-08-04T10:45:24;100250.59;;;33.82;32.26
47524;BME280;33253;42.144;25.884;2022-08-04T10:47:58;100288.59;;;34.02;30.15
47524;BME280;33253;42.144;25.884;2022-08-04T10:50:27;100282.19;;;34.05;28.31
47524;BME280;33253;42.144;25.884;2022-08-04T10:53:16;100288.97;;;34.10;29.75
47524;BME280;33253;42.144;25.884;2022-08-04T10:55:56;100240.91;;;33.94;30.02
47524;BME280;33253;42.144;25.884;2022-08-04T10:58:26;100269.00;;;34.43;30.03
47524;BME280;33253;42.144;25.884;2022-08-04T11:00:57;100277.66;;;34.74;29.10
47524;BME280;33253;42.144;25.884;2022-08-04T11:03:40;100282.13;;;34.88;27.78
47524;BME280;33253;42.144;25.884;2022-08-04T11:06:08;100270.78;;;34.70;27.12
47524;BME280;33253;42.144;25.884;2022-08-04T11:08:36;100272.88;;;34.25;27.48
47524;BME280;33253;42.144;25.884;2022-08-04T11:13:43;100266.19;;;34.72;26.73
47524;BME280;33253;42.144;25.884;2022-08-04T11:25:19;100252.97;;;33.58;29.90
47524;BME280;33253;42.144;25.884;2022-08-04T11:30:57;100263.97;;;32.80;31.05
47524;BME280;33253;42.144;25.884;2022-08-04T11:33:35;100272.66;;;32.37;31.32
47524;BME280;33253;42.144;25.884;2022-08-04T11:36:13;100269.06;;;32.22;31.94
47524;BME280;33253;42.144;25.884;2022-08-04T11:38:48;100259.63;;;31.99;32.46
47524;BME280;33253;42.144;25.884;2022-08-04T11:41:47;100264.81;;;31.86;30.40
47524;BME280;33253;42.144;25.884;2022-08-04T11:44:17;100267.78;;;31.64;30.73
47524;BME280;33253;42.144;25.884;2022-08-04T11:46:50;100255.75;;;31.72;32.25
47524;BME280;33253;42.144;25.884;2022-08-04T11:49:34;100258.09;;;31.78;30.94
47524;BME280;33253;42.144;25.884;2022-08-04T11:52:04;100257.59;;;31.88;31.41
47524;BME280;33253;42.144;25.884;2022-08-04T11:54:31;100253.94;;;31.89;30.97
47524;BME280;33253;42.144;25.884;2022-08-04T11:57:17;100252.84;;;31.93;31.28
47524;BME280;33253;42.144;25.884;2022-08-04T11:59:44;100233.22;;;31.94;31.38
47524;BME280;33253;42.144;25.884;2022-08-04T12:04:57;100241.38;;;31.91;31.29
47524;BME280;33253;42.144;25.884;2022-08-04T12:10:35;100237.94;;;32.21;31.35
47524;BME280;33253;42.144;25.884;2022-08-04T12:13:17;100230.00;;;32.35;29.23
47524;BME280;33253;42.144;25.884;2022-08-04T12:16:15;100225.03;;;32.59;31.79
47524;BME280;33253;42.144;25.884;2022-08-04T12:18:48;100142.28;;;32.72;29.96
47524;BME280;33253;42.144;25.884;2022-08-04T12:21:28;100215.03;;;33.22;28.94
47524;BME280;33253;42.144;25.884;2022-08-04T12:24:01;100158.41;;;33.30;27.87
47524;BME280;33253;42.144;25.884;2022-08-04T12:26:34;100184.56;;;33.39;26.29
47524;BME280;33253;42.144;25.884;2022-08-04T12:29:01;100217.63;;;33.38;26.09
47524;BME280;33253;42.144;25.884;2022-08-04T12:31:34;100188.34;;;33.21;26.81
47524;BME280;33253;42.144;25.884;2022-08-04T12:34:33;100208.63;;;33.11;28.30
47524;BME280;33253;42.144;25.884;2022-08-04T12:40:07;100203.34;;;33.23;28.82
47524;BME280;33253;42.144;25.884;2022-08-04T12:42:44;100196.41;;;33.06;28.23
47524;BME280;33253;42.144;25.884;2022-08-04T12:45:12;100203.09;;;33.14;28.95
47524;BME280;33253;42.144;25.884;2022-08-04T12:47:40;100203.78;;;33.17;28.90
47524;BME280;33253;42.144;25.884;2022-08-04T12:50:09;100188.28;;;33.08;27.81
47524;BME280;33253;42.144;25.884;2022-08-04T12:53:01;100193.91;;;33.18;27.52
47524;BME280;33253;42.144;25.884;2022-08-04T12:55:35;100187.63;;;33.33;28.58
47524;BME280;33253;42.144;25.884;2022-08-04T12:58:03;100199.84;;;33.52;28.35
47524;BME280;33253;42.144;25.884;2022-08-04T13:00:36;100191.63;;;33.55;26.88
47524;BME280;33253;42.144;25.884;2022-08-04T13:03:13;100179.19;;;33.68;27.30
47524;BME280;33253;42.144;25.884;2022-08-04T13:05:39;100182.19;;;33.77;25.95
47524;BME280;33253;42.144;25.884;2022-08-04T13:08:08;100187.81;;;34.01;26.88
47524;BME280;33253;42.144;25.884;2022-08-04T13:10:40;100182.84;;;34.22;27.58
47524;BME280;33253;42.144;25.884;2022-08-04T13:13:14;100173.38;;;34.57;27.16
47524;BME280;33253;42.144;25.884;2022-08-04T13:15:39;100175.88;;;34.73;24.41
47524;BME280;33253;42.144;25.884;2022-08-04T13:18:09;100186.19;;;34.92;24.18
47524;BME280;33253;42.144;25.884;2022-08-04T13:20:38;100182.97;;;35.12;25.02
47524;BME280;33253;42.144;25.884;2022-08-04T13:23:09;100176.19;;;35.20;25.63
47524;BME280;33253;42.144;25.884;2022-08-04T13:25:46;100173.38;;;35.34;25.65
47524;BME280;33253;42.144;25.884;2022-08-04T13:28:19;100127.38;;;35.02;23.90
47524;BME280;33253;42.144;25.884;2022-08-04T13:30:47;100145.09;;;35.17;25.15
47524;BME280;33253;42.144;25.884;2022-08-04T13:33:17;100183.25;;;35.46;23.42
47524;BME280;33253;42.144;25.884;2022-08-04T13:35:45;100181.78;;;35.42;24.61
47524;BME280;33253;42.144;25.884;2022-08-04T13:38:13;100175.31;;;35.45;24.38
47524;BME280;33253;42.144;25.884;2022-08-04T13:40:41;100149.88;;;35.25;24.13
47524;BME280;33253;42.144;25.884;2022-08-04T13:43:09;100180.16;;;35.27;24.92
47524;BME280;33253;42.144;25.884;2022-08-04T13:45:39;100172.13;;;35.27;23.20
47524;BME280;33253;42.144;25.884;2022-08-04T13:48:06;100171.69;;;35.33;24.14
47524;BME280;33253;42.144;25.884;2022-08-04T13:50:35;100171.88;;;35.30;24.93
47524;BME280;33253;42.144;25.884;2022-08-04T13:53:02;100170.75;;;35.08;24.03
47524;BME280;33253;42.144;25.884;2022-08-04T13:58:01;100162.50;;;34.98;24.78
47524;BME280;33253;42.144;25.884;2022-08-04T14:00:39;100155.13;;;35.26;24.20
47524;BME280;33253;42.144;25.884;2022-08-04T14:03:06;100154.28;;;35.39;23.42
47524;BME280;33253;42.144;25.884;2022-08-04T14:05:32;100144.50;;;35.38;25.16
47524;BME280;33253;42.144;25.884;2022-08-04T14:08:14;100154.16;;;35.40;24.65
47524;BME280;33253;42.144;25.884;2022-08-04T14:10:42;100159.34;;;35.30;24.85
47524;BME280;33253;42.144;25.884;2022-08-04T14:13:07;100160.63;;;35.38;24.24
47524;BME280;33253;42.144;25.884;2022-08-04T14:15:41;100160.72;;;35.36;23.76
47524;BME280;33253;42.144;25.884;2022-08-04T14:18:23;100084.50;;;34.89;25.10
47524;BME280;33253;42.144;25.884;2022-08-04T14:23:39;100157.75;;;35.15;23.30
47524;BME280;33253;42.144;25.884;2022-08-04T14:28:52;100123.84;;;34.62;24.75
47524;BME280;33253;42.144;25.884;2022-08-04T14:31:21;100110.31;;;34.38;23.70
47524;BME280;33253;42.144;25.884;2022-08-04T14:33:49;100154.41;;;34.73;23.30
47524;BME280;33253;42.144;25.884;2022-08-04T14:36:17;100146.25;;;34.61;25.79
47524;BME280;33253;42.144;25.884;2022-08-04T14:38:50;100155.72;;;34.67;26.85
47524;BME280;33253;42.144;25.884;2022-08-04T14:41:19;100156.97;;;34.61;26.08
47524;BME280;33253;42.144;25.884;2022-08-04T14:43:53;100123.25;;;34.18;27.05
47524;BME280;33253;42.144;25.884;2022-08-04T14:46:20;100149.69;;;34.23;26.63
47524;BME280;33253;42.144;25.884;2022-08-04T14:49:04;100150.75;;;34.08;26.02
47524;BME280;33253;42.144;25.884;2022-08-04T14:51:53;100147.94;;;33.96;25.18
47524;BME280;33253;42.144;25.884;2022-08-04T14:54:33;100149.72;;;33.96;25.73
47524;BME280;33253;42.144;25.884;2022-08-04T14:57:05;100144.16;;;33.86;24.42
47524;BME280;33253;42.144;25.884;2022-08-04T14:59:42;100138.59;;;33.75;24.90
47524;BME280;33253;42.144;25.884;2022-08-04T15:02:09;100127.31;;;33.84;25.10
47524;BME280;33253;42.144;25.884;2022-08-04T15:04:36;100141.88;;;34.07;25.61
47524;BME280;33253;42.144;25.884;2022-08-04T15:07:07;100144.16;;;34.26;24.47
47524;BME280;33253;42.144;25.884;2022-08-04T15:09:52;100140.78;;;34.37;24.05
47524;BME280;33253;42.144;25.884;2022-08-04T15:12:19;100108.66;;;34.10;24.10
47524;BME280;33253;42.144;25.884;2022-08-04T15:14:45;100142.41;;;34.40;25.22
47524;BME280;33253;42.144;25.884;2022-08-04T15:17:11;100142.28;;;34.54;24.61
47524;BME280;33253;42.144;25.884;2022-08-04T15:19:37;100095.47;;;34.19;25.32
47524;BME280;33253;42.144;25.884;2022-08-04T15:22:03;100110.69;;;34.19;26.15
47524;BME280;33253;42.144;25.884;2022-08-04T15:24:29;100133.06;;;34.45;24.92
47524;BME280;33253;42.144;25.884;2022-08-04T15:26:56;100138.97;;;34.63;26.59
47524;BME280;33253;42.144;25.884;2022-08-04T15:29:44;100137.78;;;34.55;24.89
47524;BME280;33253;42.144;25.884;2022-08-04T15:32:13;100135.34;;;34.64;25.07
47524;BME280;33253;42.144;25.884;2022-08-04T15:34:48;100139.63;;;34.67;25.18
47524;BME280;33253;42.144;25.884;2022-08-04T15:40:17;100086.47;;;34.21;25.41
47524;BME280;33253;42.144;25.884;2022-08-04T15:45:57;100137.72;;;34.16;27.36
47524;BME280;33253;42.144;25.884;2022-08-04T15:48:25;100140.44;;;34.01;26.41
47524;BME280;33253;42.144;25.884;2022-08-04T15:51:02;100143.47;;;34.10;27.70
47524;BME280;33253;42.144;25.884;2022-08-04T15:56:00;100123.59;;;33.99;26.11
47524;BME280;33253;42.144;25.884;2022-08-04T15:58:52;100147.06;;;33.96;26.70
47524;BME280;33253;42.144;25.884;2022-08-04T16:01:19;100092.63;;;33.68;25.76
47524;BME280;33253;42.144;25.884;2022-08-04T16:03:49;100153.28;;;33.96;26.65
47524;BME280;33253;42.144;25.884;2022-08-04T16:19:31;100157.28;;;33.62;27.84
47524;BME280;33253;42.144;25.884;2022-08-04T16:22:00;100155.47;;;33.62;26.76
47524;BME280;33253;42.144;25.884;2022-08-04T16:24:39;100154.91;;;33.57;27.17
47524;BME280;33253;42.144;25.884;2022-08-04T16:27:14;100159.69;;;33.52;28.45
47524;BME280;33253;42.144;25.884;2022-08-04T16:30:02;100157.56;;;33.57;29.27
47524;BME280;33253;42.144;25.884;2022-08-04T16:32:38;100165.31;;;33.62;28.17
47524;BME280;33253;42.144;25.884;2022-08-04T16:35:20;100157.66;;;33.70;30.06
47524;BME280;33253;42.144;25.884;2022-08-04T16:37:46;100167.09;;;33.76;30.05
47524;BME280;33253;42.144;25.884;2022-08-04T16:40:35;100161.44;;;33.80;30.61
47524;BME280;33253;42.144;25.884;2022-08-04T16:43:15;100163.66;;;33.74;29.11
47524;BME280;33253;42.144;25.884;2022-08-04T16:48:08;100165.66;;;33.43;29.04
47524;BME280;33253;42.144;25.884;2022-08-04T16:50:48;100170.91;;;33.30;28.03
47524;BME280;33253;42.144;25.884;2022-08-04T16:53:15;100166.97;;;33.21;28.93
47524;BME280;33253;42.144;25.884;2022-08-04T16:55:50;100132.00;;;32.81;28.65
47524;BME280;33253;42.144;25.884;2022-08-04T16:58:23;100177.38;;;32.97;28.96
47524;BME280;33253;42.144;25.884;2022-08-04T17:00:50;100176.13;;;32.88;29.48
47524;BME280;33253;42.144;25.884;2022-08-04T17:03:16;100183.28;;;32.87;29.72
47524;BME280;33253;42.144;25.884;2022-08-04T17:05:42;100182.03;;;32.79;29.52
47524;BME280;33253;42.144;25.884;2022-08-04T17:08:08;100175.34;;;32.71;30.02
47524;BME280;33253;42.144;25.884;2022-08-04T17:10:37;100180.63;;;32.57;30.73
47524;BME280;33253;42.144;25.884;2022-08-04T17:15:47;100194.34;;;32.36;30.95
47524;BME280;33253;42.144;25.884;2022-08-04T17:18:19;100190.38;;;32.28;31.36
47524;BME280;33253;42.144;25.884;2022-08-04T17:20:45;100201.16;;;32.26;31.08
47524;BME280;33253;42.144;25.884;2022-08-04T17:25:57;100198.66;;;32.07;31.73
47524;BME280;33253;42.144;25.884;2022-08-04T17:28:23;100206.31;;;32.13;32.05
47524;BME280;33253;42.144;25.884;2022-08-04T17:30:50;100208.91;;;32.15;32.83